< < Back
Terminal Aerodrome Forecast


Current Version              Previous Versions:   1  2  3  4  5  6  7  8  9  

Terminal Aerodrome Forecast

408
FTUS44 KOHX 201100
TAFBNA
TAF
KBNA 201120Z 2012/2112 25007KT P6SM SCT040=



Latest METAR

986
SAUS70 KWBC 202000 RRE
MTRBNA
METAR KBNA 201953Z 25005G14KT 10SM SCT047 BKN060 BKN180 BKN250 34/23
A2997 RMK AO2 TSE52 SLP139 OCNL LTG DSNT NE-SE TS MOV E CB
DSNT NE-SE TCU ALQDS T03390228


USA.gov is the U.S. government's official web portal to all federal, state and local government web resources and services.